Time;durP1;ratioP1;P1;durP2;ratioP2;P2;SDS_P1;SDS_P2;PMS_P1;PMS_P2;Temp;Humidity;BMP_temperature;BMP_pressure;BME280_temperature;BME280_humidity;BME280_pressure;Samples;Min_cycle;Max_cycle;Signal;HPM_P1;HPM_P2
2023/05/02 00:02:31;;;;;;;;;;;;;;;9.29;100.00;95758.50;10356830;28;2060;-72
2023/05/02 00:07:33;;;;;;;;;;;;;;;9.26;100.00;95755.53;10325844;28;1912;-71
2023/05/02 00:12:36;;;;;;;;;;;;;;;9.14;100.00;95753.91;10344751;28;2201;-72
2023/05/02 00:17:38;;;;;;;;;;;;;;;9.09;100.00;95748.53;10356260;28;2291;-72
2023/05/02 00:22:41;;;;;;;;;;;;;;;8.95;100.00;95755.47;10354923;28;1988;-72
2023/05/02 00:27:45;;;;;;;;;;;;;;;8.91;100.00;95759.75;10360052;28;2215;-71
2023/05/02 00:32:48;;;;;;;;;;;;;;;8.85;100.00;95753.56;10360718;28;2378;-69
2023/05/02 00:37:50;;;;;;;;;;;;;;;8.81;100.00;95754.34;10352951;28;2103;-72
2023/05/02 00:42:52;;;;;;;;;;;;;;;8.76;100.00;95746.28;10351315;28;1973;-70
2023/05/02 00:47:55;;;;;;;;;;;;;;;8.61;100.00;95739.81;10354899;28;1966;-69
2023/05/02 00:52:58;;;;;;;;;;;;;;;8.50;100.00;95743.50;10352393;28;4970;-71
2023/05/02 00:58:00;;;;;;;;;;;;;;;8.42;100.00;95746.69;10357166;28;2101;-72
2023/05/02 01:03:03;;;;;;;;;;;;;;;8.30;100.00;95744.16;10355531;28;2247;-72
2023/05/02 01:08:05;;;;;;;;;;;;;;;8.27;100.00;95754.56;10359629;28;2281;-76
2023/05/02 01:13:07;;;;;;;;;;;;;;;8.20;100.00;95754.81;10359860;28;2038;-77
2023/05/02 01:18:10;;;;;;;;;;;;;;;8.13;100.00;95755.03;10361436;28;1975;-71
2023/05/02 01:23:12;;;;;;;;;;;;;;;8.13;100.00;95752.34;10365090;28;2204;-70
2023/05/02 01:28:15;;;;;;;;;;;;;;;8.12;100.00;95764.13;10357407;28;1904;-71
2023/05/02 01:33:17;;;;;;;;;;;;;;;8.09;100.00;95764.66;10367283;28;1911;-70
2023/05/02 01:38:20;;;;;;;;;;;;;;;8.07;100.00;95764.09;10359120;28;1934;-69
2023/05/02 01:43:22;;;;;;;;;;;;;;;8.11;100.00;95761.72;10347992;28;2005;-70
2023/05/02 01:48:25;;;;;;;;;;;;;;;8.07;100.00;95760.63;10359182;28;4855;-70
2023/05/02 01:53:27;;;;;;;;;;;;;;;8.07;100.00;95761.41;10355556;28;2030;-70
2023/05/02 01:58:30;;;;;;;;;;;;;;;8.02;100.00;95764.09;10356371;28;1939;-74
2023/05/02 02:03:32;;;;;;;;;;;;;;;8.02;100.00;95769.44;10342410;28;2096;-71
2023/05/02 02:08:34;;;;;;;;;;;;;;;8.05;100.00;95774.28;10361581;28;1994;-71
2023/05/02 02:13:37;;;;;;;;;;;;;;;8.01;100.00;95783.88;10356951;28;1986;-70
2023/05/02 02:18:39;;;;;;;;;;;;;;;8.05;100.00;95776.94;10351402;28;2067;-71
2023/05/02 02:23:42;;;;;;;;;;;;;;;8.07;100.00;95782.84;10362285;28;2018;-71
2023/05/02 02:28:44;;;;;;;;;;;;;;;8.06;100.00;95789.25;10351753;28;2047;-71
2023/05/02 02:33:47;;;;;;;;;;;;;;;8.10;100.00;95785.03;10357994;28;1950;-71
2023/05/02 02:38:50;;;;;;;;;;;;;;;8.07;100.00;95801.56;10360713;28;2039;-72
2023/05/02 02:43:52;;;;;;;;;;;;;;;8.09;100.00;95801.34;10349579;28;2031;-71
2023/05/02 02:48:55;;;;;;;;;;;;;;;8.12;100.00;95796.28;10358109;28;4864;-72
2023/05/02 02:53:58;;;;;;;;;;;;;;;8.13;100.00;95792.53;10350903;28;1986;-69
2023/05/02 02:59:00;;;;;;;;;;;;;;;8.13;100.00;95792.53;10352405;28;2034;-74
2023/05/02 03:04:03;;;;;;;;;;;;;;;8.11;100.00;95808.03;10350698;28;2091;-71
2023/05/02 03:09:06;;;;;;;;;;;;;;;8.16;100.00;95803.81;10353173;28;1981;-72
2023/05/02 03:14:08;;;;;;;;;;;;;;;8.14;100.00;95814.75;10351341;28;2029;-71
2023/05/02 03:19:10;;;;;;;;;;;;;;;8.08;100.00;95811.25;10356370;28;2396;-71
2023/05/02 03:24:13;;;;;;;;;;;;;;;8.04;100.00;95825.41;10338142;28;1991;-70
2023/05/02 03:29:19;;;;;;;;;;;;;;;7.93;100.00;95815.66;10359366;28;1982;-70
2023/05/02 03:34:22;;;;;;;;;;;;;;;7.86;100.00;95815.88;10350161;28;2104;-70
2023/05/02 03:39:24;;;;;;;;;;;;;;;7.74;100.00;95820.59;10360207;28;1948;-69
2023/05/02 03:44:27;;;;;;;;;;;;;;;7.67;100.00;95828.03;10357177;28;1981;-71
2023/05/02 03:49:29;;;;;;;;;;;;;;;7.56;100.00;95827.91;10357647;28;5064;-70
2023/05/02 03:54:31;;;;;;;;;;;;;;;7.51;100.00;95827.88;10349257;28;2104;-71
2023/05/02 03:59:34;;;;;;;;;;;;;;;7.48;100.00;95836.41;10348173;28;2087;-71
2023/05/02 04:04:37;;;;;;;;;;;;;;;7.42;100.00;95842.75;10359082;28;2223;-70
2023/05/02 04:09:39;;;;;;;;;;;;;;;7.44;100.00;95856.66;10356794;28;2216;-69
2023/05/02 04:14:42;;;;;;;;;;;;;;;7.52;100.00;95853.56;10355302;28;2078;-70
2023/05/02 04:19:44;;;;;;;;;;;;;;;7.57;100.00;95858.16;10344670;28;1958;-71
2023/05/02 04:24:47;;;;;;;;;;;;;;;7.70;100.00;95862.28;10353356;28;2208;-70
2023/05/02 04:29:49;;;;;;;;;;;;;;;7.84;100.00;95866.19;10352078;28;2007;-72
2023/05/02 04:34:53;;;;;;;;;;;;;;;7.98;100.00;95878.09;10333906;28;2138;-72
2023/05/02 04:39:55;;;;;;;;;;;;;;;8.16;100.00;95876.09;10346663;28;2027;-71
2023/05/02 04:44:58;;;;;;;;;;;;;;;8.30;100.00;95882.63;10347123;28;1981;-73
2023/05/02 04:50:01;;;;;;;;;;;;;;;8.43;100.00;95884.91;10355280;28;5049;-72
2023/05/02 04:55:04;;;;;;;;;;;;;;;8.53;100.00;95897.56;10352204;28;2087;-71
2023/05/02 05:00:06;;;;;;;;;;;;;;;8.66;100.00;95908.66;10353574;28;1981;-71
2023/05/02 05:05:09;;;;;;;;;;;;;;;8.88;100.00;95899.66;10354773;28;2040;-72
2023/05/02 05:10:12;;;;;;;;;;;;;;;9.02;100.00;95911.53;10353740;28;2053;-72
2023/05/02 05:15:15;;;;;;;;;;;;;;;9.21;100.00;95906.53;10357480;28;1915;-74
2023/05/02 05:20:18;;;;;;;;;;;;;;;9.39;100.00;95910.63;10352257;28;1864;-72
2023/05/02 05:25:21;;;;;;;;;;;;;;;9.50;100.00;95912.28;10355010;28;1993;-72
2023/05/02 05:30:24;;;;;;;;;;;;;;;9.66;100.00;95916.63;10352405;28;1909;-71
2023/05/02 05:35:27;;;;;;;;;;;;;;;9.83;100.00;95920.97;10354361;28;1937;-70
2023/05/02 05:40:30;;;;;;;;;;;;;;;9.89;100.00;95925.28;10359839;28;2074;-73
2023/05/02 05:45:32;;;;;;;;;;;;;;;10.00;100.00;95926.94;10360827;28;1978;-70
2023/05/02 05:50:35;;;;;;;;;;;;;;;10.16;100.00;95936.59;10353159;28;4899;-71
2023/05/02 05:55:38;;;;;;;;;;;;;;;10.18;100.00;95950.59;10351183;28;2184;-72
2023/05/02 06:00:43;;;;;;;;;;;;;;;10.28;100.00;95950.63;10361856;28;1989;-72
2023/05/02 06:05:46;;;;;;;;;;;;;;;10.32;100.00;95950.09;10361311;28;1998;-71
2023/05/02 06:10:48;;;;;;;;;;;;;;;10.57;100.00;95952.81;10363653;28;1919;-72
2023/05/02 06:15:51;;;;;;;;;;;;;;;10.66;100.00;95955.75;10350705;28;1993;-71
2023/05/02 06:20:54;;;;;;;;;;;;;;;11.09;100.00;95960.56;10359925;28;2187;-72
2023/05/02 06:25:56;;;;;;;;;;;;;;;11.36;100.00;95964.78;10356177;28;1928;-72
2023/05/02 06:31:00;;;;;;;;;;;;;;;11.30;100.00;95972.06;10365904;28;1930;-74
2023/05/02 06:36:03;;;;;;;;;;;;;;;11.76;100.00;95971.13;10357824;28;1961;-73
2023/05/02 06:41:05;;;;;;;;;;;;;;;12.05;100.00;95977.47;10356347;28;1928;-73
2023/05/02 06:46:08;;;;;;;;;;;;;;;12.69;100.00;95975.72;10354890;28;1969;-73
2023/05/02 06:51:11;;;;;;;;;;;;;;;11.90;100.00;95981.06;10349199;28;4918;-73
2023/05/02 06:56:14;;;;;;;;;;;;;;;12.31;100.00;95980.81;10354126;28;1975;-72
2023/05/02 07:01:17;;;;;;;;;;;;;;;12.41;100.00;95996.16;10351974;28;2028;-72
2023/05/02 07:06:20;;;;;;;;;;;;;;;12.36;100.00;95988.09;10350309;28;1974;-73
2023/05/02 07:11:24;;;;;;;;;;;;;;;12.54;100.00;95989.31;10348445;28;2010;-74
2023/05/02 07:16:26;;;;;;;;;;;;;;;13.18;100.00;95988.25;10360598;28;2239;-73
2023/05/02 07:21:28;;;;;;;;;;;;;;;13.46;100.00;95990.16;10357514;28;1914;-72
2023/05/02 07:26:31;;;;;;;;;;;;;;;13.54;100.00;95991.41;10358905;28;2036;-72
2023/05/02 07:31:34;;;;;;;;;;;;;;;13.45;100.00;96002.03;10347331;28;1979;-72
2023/05/02 07:36:37;;;;;;;;;;;;;;;13.62;100.00;95998.09;10352109;28;2054;-72
2023/05/02 07:41:40;;;;;;;;;;;;;;;13.89;100.00;95995.63;10354528;28;2120;-72
2023/05/02 07:46:42;;;;;;;;;;;;;;;13.78;100.00;95997.63;10347464;28;2049;-75
2023/05/02 07:51:45;;;;;;;;;;;;;;;14.07;100.00;96000.25;10348028;28;4915;-73
2023/05/02 07:56:48;;;;;;;;;;;;;;;13.59;100.00;96006.75;10350015;28;2142;-73
2023/05/02 08:01:51;;;;;;;;;;;;;;;14.27;100.00;96004.59;10354366;28;1939;-73
2023/05/02 08:06:54;;;;;;;;;;;;;;;14.64;100.00;96005.72;10351879;28;1958;-74
2023/05/02 08:11:57;;;;;;;;;;;;;;;14.89;100.00;96015.34;10351703;28;1968;-72
2023/05/02 08:17:00;;;;;;;;;;;;;;;15.58;100.00;96007.38;10353080;28;2058;-73
2023/05/02 08:22:03;;;;;;;;;;;;;;;15.68;100.00;96010.75;10356219;28;2152;-73
2023/05/02 08:27:06;;;;;;;;;;;;;;;15.78;100.00;96008.97;10348869;28;2042;-71
2023/05/02 08:32:09;;;;;;;;;;;;;;;15.74;100.00;96010.66;10352087;28;1959;-71
2023/05/02 08:37:12;;;;;;;;;;;;;;;16.09;100.00;96015.34;10356781;28;1975;-72
2023/05/02 08:42:14;;;;;;;;;;;;;;;15.54;100.00;96012.63;10354624;28;1960;-72
2023/05/02 08:47:17;;;;;;;;;;;;;;;15.49;100.00;96017.31;10352431;28;1982;-73
2023/05/02 08:52:20;;;;;;;;;;;;;;;15.98;100.00;96024.81;10349721;28;5047;-72
2023/05/02 08:57:23;;;;;;;;;;;;;;;15.86;100.00;96021.81;10348742;28;2020;-73
2023/05/02 09:02:26;;;;;;;;;;;;;;;16.74;100.00;96017.78;10350607;28;1940;-73
2023/05/02 09:07:29;;;;;;;;;;;;;;;16.99;100.00;96029.16;10353153;28;1971;-73
2023/05/02 09:12:32;;;;;;;;;;;;;;;17.25;100.00;96024.72;10352917;28;2037;-71
2023/05/02 09:17:34;;;;;;;;;;;;;;;16.96;100.00;96032.47;10358244;28;1929;-72
2023/05/02 09:22:37;;;;;;;;;;;;;;;16.57;100.00;96033.88;10359640;28;2019;-73
2023/05/02 09:27:40;;;;;;;;;;;;;;;16.85;100.00;96036.53;10357248;28;2251;-73
2023/05/02 09:32:43;;;;;;;;;;;;;;;16.88;100.00;96044.09;10355335;28;2039;-72
2023/05/02 09:37:46;;;;;;;;;;;;;;;17.08;100.00;96040.09;10358726;28;2026;-74
2023/05/02 09:42:49;;;;;;;;;;;;;;;17.19;100.00;96044.16;10357442;28;2012;-72
2023/05/02 09:47:52;;;;;;;;;;;;;;;17.54;100.00;96048.69;10355887;28;2048;-71
2023/05/02 09:52:55;;;;;;;;;;;;;;;18.13;100.00;96043.06;10356045;28;5122;-72
2023/05/02 09:57:57;;;;;;;;;;;;;;;17.49;100.00;96040.66;10353130;28;2208;-75
2023/05/02 10:03:01;;;;;;;;;;;;;;;17.61;100.00;96045.53;10356141;28;2251;-72
2023/05/02 10:08:04;;;;;;;;;;;;;;;17.55;100.00;96039.41;10358348;28;1916;-72
2023/05/02 10:13:07;;;;;;;;;;;;;;;17.70;100.00;96051.03;10352122;28;2145;-72
2023/05/02 10:18:12;;;;;;;;;;;;;;;17.35;100.00;96047.28;10354784;28;2117;-72
2023/05/02 10:23:14;;;;;;;;;;;;;;;16.78;100.00;96047.03;10355641;28;2090;-72
2023/05/02 10:28:16;;;;;;;;;;;;;;;16.17;100.00;96041.78;10355192;28;1976;-73
2023/05/02 10:33:19;;;;;;;;;;;;;;;15.94;100.00;96045.50;10359954;28;1944;-74
2023/05/02 10:38:21;;;;;;;;;;;;;;;15.80;100.00;96041.97;10348255;28;2090;-72
2023/05/02 10:43:26;;;;;;;;;;;;;;;15.82;100.00;96032.44;10354380;28;2029;-73
2023/05/02 10:48:28;;;;;;;;;;;;;;;15.52;100.00;96039.19;10356670;28;4955;-73
2023/05/02 10:53:31;;;;;;;;;;;;;;;15.48;100.00;96040.91;10353873;28;1509;-73
2023/05/02 10:58:34;;;;;;;;;;;;;;;14.52;100.00;96054.03;10364931;28;1390;-72
2023/05/02 11:03:37;;;;;;;;;;;;;;;13.94;100.00;96057.72;10357654;28;2429;-72
2023/05/02 11:08:40;;;;;;;;;;;;;;;13.23;100.00;96053.00;10353660;28;2096;-73
2023/05/02 11:13:43;;;;;;;;;;;;;;;13.04;100.00;96063.69;10355927;28;1971;-72
2023/05/02 11:18:46;;;;;;;;;;;;;;;13.43;100.00;96065.53;10347374;28;2076;-72
2023/05/02 11:23:49;;;;;;;;;;;;;;;13.74;100.00;96076.81;10356149;28;2049;-72
2023/05/02 11:28:52;;;;;;;;;;;;;;;13.99;100.00;96073.84;10358242;28;1936;-74
2023/05/02 11:33:55;;;;;;;;;;;;;;;14.53;100.00;96067.28;10362608;28;1896;-73
2023/05/02 11:38:57;;;;;;;;;;;;;;;15.02;100.00;96067.94;10352695;28;2323;-75
2023/05/02 11:44:00;;;;;;;;;;;;;;;15.28;100.00;96071.03;10350146;28;1989;-76
2023/05/02 11:49:04;;;;;;;;;;;;;;;15.86;100.00;96071.41;10351093;28;2768;-74
2023/05/02 11:54:10;;;;;;;;;;;;;;;16.26;100.00;96058.13;10361115;28;2066;-72
2023/05/02 11:59:12;;;;;;;;;;;;;;;17.16;100.00;96058.34;10356120;28;1978;-75
2023/05/02 12:04:20;;;;;;;;;;;;;;;17.36;100.00;96059.75;10352508;28;1956;-73
2023/05/02 12:09:23;;;;;;;;;;;;;;;17.11;100.00;96058.47;10355552;28;2053;-72
2023/05/02 12:14:25;;;;;;;;;;;;;;;17.12;100.00;96066.34;10349190;28;1961;-73
2023/05/02 12:19:28;;;;;;;;;;;;;;;16.86;100.00;96059.84;10351486;28;2112;-72
2023/05/02 12:24:30;;;;;;;;;;;;;;;16.87;100.00;96051.44;10350141;28;1955;-71
2023/05/02 12:29:33;;;;;;;;;;;;;;;17.37;100.00;96048.59;10349062;28;1975;-72
2023/05/02 12:34:36;;;;;;;;;;;;;;;18.07;100.00;96052.50;10352363;28;1987;-72
2023/05/02 12:39:39;;;;;;;;;;;;;;;17.97;100.00;96055.50;10338842;28;2184;-73
2023/05/02 12:44:42;;;;;;;;;;;;;;;18.74;100.00;96052.22;10352893;28;2106;-73
2023/05/02 12:49:44;;;;;;;;;;;;;;;18.49;100.00;96067.34;10353915;28;4971;-72
2023/05/02 12:54:47;;;;;;;;;;;;;;;18.81;100.00;96057.97;10363647;28;1984;-72
2023/05/02 12:59:49;;;;;;;;;;;;;;;18.65;100.00;96056.81;10333547;28;1879;-73
2023/05/02 13:04:52;;;;;;;;;;;;;;;19.29;100.00;96048.06;10358716;28;1973;-73
2023/05/02 13:09:55;;;;;;;;;;;;;;;19.80;100.00;96049.91;10357164;28;1916;-74
2023/05/02 13:14:58;;;;;;;;;;;;;;;20.19;100.00;96048.00;10365600;28;1912;-74
2023/05/02 13:20:02;;;;;;;;;;;;;;;19.16;100.00;96058.00;10363780;28;2198;-74
2023/05/02 13:25:05;;;;;;;;;;;;;;;18.54;100.00;96059.03;10360747;28;1910;-73
2023/05/02 13:30:08;;;;;;;;;;;;;;;17.57;100.00;96058.16;10353255;28;1940;-76
2023/05/02 13:35:12;;;;;;;;;;;;;;;17.80;100.00;96057.00;10358344;28;2190;-73
2023/05/02 13:40:15;;;;;;;;;;;;;;;17.97;100.00;96061.75;10356763;28;2116;-73
2023/05/02 13:45:18;;;;;;;;;;;;;;;17.70;100.00;96060.00;10349000;28;1987;-75
2023/05/02 13:50:20;;;;;;;;;;;;;;;17.10;100.00;96065.81;10356807;28;4936;-74
2023/05/02 13:55:23;;;;;;;;;;;;;;;16.12;100.00;96101.53;10350947;28;2345;-74
2023/05/02 14:00:27;;;;;;;;;;;;;;;13.45;100.00;96123.56;10351443;28;1972;-73
2023/05/02 14:05:30;;;;;;;;;;;;;;;12.07;100.00;96125.38;10361112;28;1973;-76
2023/05/02 14:10:32;;;;;;;;;;;;;;;11.80;100.00;96131.91;10357695;28;1893;-73
2023/05/02 14:15:36;;;;;;;;;;;;;;;10.97;100.00;96144.81;10362323;28;1909;-72
2023/05/02 14:20:38;;;;;;;;;;;;;;;10.26;100.00;96151.59;10360078;28;1880;-73
2023/05/02 14:25:41;;;;;;;;;;;;;;;9.87;100.00;96152.97;10357922;28;1895;-74
2023/05/02 14:30:43;;;;;;;;;;;;;;;9.97;100.00;96147.66;10362609;28;2038;-72
2023/05/02 14:35:46;;;;;;;;;;;;;;;10.26;100.00;96143.53;10367301;28;1960;-73
2023/05/02 14:40:48;;;;;;;;;;;;;;;10.72;100.00;96142.88;10342180;28;1905;-71
2023/05/02 14:45:51;;;;;;;;;;;;;;;11.05;100.00;96138.91;10364605;28;1914;-73
2023/05/02 14:50:55;;;;;;;;;;;;;;;11.21;100.00;96139.75;10357180;28;4896;-75
2023/05/02 14:55:58;;;;;;;;;;;;;;;11.97;100.00;96128.13;10355818;28;1882;-72
2023/05/02 15:01:00;;;;;;;;;;;;;;;12.85;100.00;96112.09;10360045;28;1884;-72
2023/05/02 15:06:03;;;;;;;;;;;;;;;13.32;100.00;96113.41;10359302;28;2034;-72
2023/05/02 15:11:06;;;;;;;;;;;;;;;13.58;100.00;96118.59;10355282;28;1880;-74
2023/05/02 15:16:08;;;;;;;;;;;;;;;14.01;100.00;96108.72;10352061;28;1996;-72
2023/05/02 15:21:11;;;;;;;;;;;;;;;14.07;100.00;96108.38;10350564;28;1885;-72
2023/05/02 15:26:14;;;;;;;;;;;;;;;13.73;100.00;96102.22;10340830;28;2103;-71
2023/05/02 15:31:16;;;;;;;;;;;;;;;13.43;100.00;96101.44;10343210;28;1893;-72
2023/05/02 15:36:19;;;;;;;;;;;;;;;13.75;100.00;96087.38;10337667;28;2006;-72
2023/05/02 15:41:22;;;;;;;;;;;;;;;14.13;100.00;96100.22;10342320;28;1905;-74
2023/05/02 15:46:25;;;;;;;;;;;;;;;14.54;100.00;96095.94;10347234;28;2166;-75
2023/05/02 15:51:27;;;;;;;;;;;;;;;14.75;100.00;96090.22;10348171;28;4918;-73
2023/05/02 15:56:31;;;;;;;;;;;;;;;14.00;100.00;96105.22;10353302;28;2184;-72
2023/05/02 16:01:33;;;;;;;;;;;;;;;13.77;100.00;96109.50;10353210;28;2216;-72
2023/05/02 16:06:43;;;;;;;;;;;;;;;13.40;100.00;96114.69;10343695;28;2091;-72
2023/05/02 16:12:04;;;;;;;;;;;;;;;13.30;100.00;96123.69;10353413;28;1897;-73
2023/05/02 16:17:06;;;;;;;;;;;;;;;12.97;100.00;96134.13;10342239;28;1927;-73
2023/05/02 16:22:09;;;;;;;;;;;;;;;12.76;100.00;96154.22;10361185;28;2025;-71
2023/05/02 16:27:11;;;;;;;;;;;;;;;12.65;100.00;96166.16;10347017;28;2396;-73
2023/05/02 16:32:14;;;;;;;;;;;;;;;12.61;100.00;96176.69;10336419;28;1822;-71
2023/05/02 16:37:16;;;;;;;;;;;;;;;12.12;100.00;96198.13;10354528;28;1900;-70
2023/05/02 16:42:18;;;;;;;;;;;;;;;11.95;100.00;96213.78;10345824;28;2015;-72
2023/05/02 16:47:21;;;;;;;;;;;;;;;11.22;100.00;96243.63;10354112;28;1919;-71
2023/05/02 16:52:23;;;;;;;;;;;;;;;10.42;100.00;96265.34;10350914;28;4911;-77
2023/05/02 16:57:26;;;;;;;;;;;;;;;10.10;100.00;96286.88;10352978;28;1911;-70
2023/05/02 17:02:28;;;;;;;;;;;;;;;9.84;100.00;96283.19;10351833;28;1972;-71
2023/05/02 17:07:31;;;;;;;;;;;;;;;9.71;100.00;96292.47;10352829;28;2017;-75
2023/05/02 17:12:33;;;;;;;;;;;;;;;9.41;100.00;96289.50;10350245;28;1905;-75
2023/05/02 17:17:36;;;;;;;;;;;;;;;9.55;100.00;96290.72;10354471;28;1790;-77
2023/05/02 17:22:40;;;;;;;;;;;;;;;9.60;100.00;96287.25;10355862;28;2283;-76
2023/05/02 17:27:42;;;;;;;;;;;;;;;9.67;100.00;96261.84;10349931;28;1914;-76
2023/05/02 17:32:45;;;;;;;;;;;;;;;9.77;100.00;96269.16;10354469;28;1942;-77
2023/05/02 17:37:47;;;;;;;;;;;;;;;9.71;100.00;96268.31;10353652;28;1822;-76
2023/05/02 17:42:50;;;;;;;;;;;;;;;9.80;100.00;96262.47;10359663;28;1842;-74
2023/05/02 17:47:52;;;;;;;;;;;;;;;9.74;100.00;96272.38;10354251;28;1914;-74
2023/05/02 17:52:55;;;;;;;;;;;;;;;9.83;100.00;96278.06;10344100;28;4926;-75
2023/05/02 17:57:58;;;;;;;;;;;;;;;9.88;100.00;96278.94;10347406;28;1878;-77
2023/05/02 18:09:06;;;;;;;;;;;;;;;9.79;100.00;96296.56;10314715;28;1974;-81
2023/05/02 18:14:10;;;;;;;;;;;;;;;9.78;100.00;96296.81;10351809;28;1953;-75
2023/05/02 18:19:18;;;;;;;;;;;;;;;9.74;100.00;96294.66;10338339;28;2351;-77
2023/05/02 18:24:22;;;;;;;;;;;;;;;9.79;100.00;96301.91;10338587;28;1977;-77
2023/05/02 18:29:37;;;;;;;;;;;;;;;9.67;100.00;96307.47;10352183;28;1877;-76
2023/05/02 18:34:44;;;;;;;;;;;;;;;9.55;100.00;96312.19;10341025;28;1901;-76
2023/05/02 18:39:52;;;;;;;;;;;;;;;9.38;100.00;96320.34;10356264;28;1892;-76
2023/05/02 18:44:55;;;;;;;;;;;;;;;9.27;100.00;96323.97;10336753;28;1906;-75
2023/05/02 18:50:12;;;;;;;;;;;;;;;9.13;100.00;96331.59;10357260;28;4987;-74
2023/05/02 18:55:23;;;;;;;;;;;;;;;8.97;100.00;96343.22;10340233;28;1939;-77
2023/05/02 19:00:29;;;;;;;;;;;;;;;8.92;100.00;96351.19;10358209;28;1940;-77
2023/05/02 19:05:35;;;;;;;;;;;;;;;8.71;100.00;96351.94;10354331;28;1985;-76
2023/05/02 19:10:41;;;;;;;;;;;;;;;8.61;100.00;96348.09;10336827;28;1880;-74
2023/05/02 19:15:44;;;;;;;;;;;;;;;8.60;100.00;96337.63;10343232;28;1900;-75
2023/05/02 19:20:49;;;;;;;;;;;;;;;8.51;100.00;96355.16;10331598;28;1886;-72
2023/05/02 19:25:54;;;;;;;;;;;;;;;8.40;100.00;96354.22;10352090;28;1950;-75
2023/05/02 19:31:01;;;;;;;;;;;;;;;8.34;100.00;96355.16;10326271;28;2069;-74
2023/05/02 19:36:10;;;;;;;;;;;;;;;8.32;100.00;96359.94;10336086;28;1890;-74
2023/05/02 19:41:15;;;;;;;;;;;;;;;8.24;100.00;96366.53;10339427;28;2097;-74
2023/05/02 19:46:22;;;;;;;;;;;;;;;8.17;100.00;96365.06;10340023;28;1984;-74
2023/05/02 19:51:26;;;;;;;;;;;;;;;8.04;100.00;96380.41;10355736;28;4974;-75
2023/05/02 19:56:36;;;;;;;;;;;;;;;7.98;100.00;96378.69;10334197;28;2009;-75
2023/05/02 20:07:55;;;;;;;;;;;;;;;7.76;100.00;96381.28;10280520;28;2162;-76
2023/05/02 20:13:00;;;;;;;;;;;;;;;7.69;100.00;96391.28;10348946;28;1870;-76
2023/05/02 20:18:06;;;;;;;;;;;;;;;7.72;100.00;96390.81;10359863;28;1848;-75
2023/05/02 20:23:10;;;;;;;;;;;;;;;7.72;100.00;96392.69;10351361;28;1913;-76
2023/05/02 20:28:21;;;;;;;;;;;;;;;7.71;100.00;96404.44;10348445;28;1950;-74
2023/05/02 20:33:30;;;;;;;;;;;;;;;7.57;100.00;96396.72;10338638;28;1895;-75
2023/05/02 20:38:47;;;;;;;;;;;;;;;7.47;100.00;96399.19;10345312;28;1949;-74
2023/05/02 20:43:53;;;;;;;;;;;;;;;7.40;100.00;96397.69;10334673;28;1990;-75
2023/05/02 20:49:01;;;;;;;;;;;;;;;7.33;100.00;96403.19;10353449;28;4978;-75
2023/05/02 20:54:04;;;;;;;;;;;;;;;7.25;100.00;96398.19;10341110;28;2280;-75
2023/05/02 20:59:08;;;;;;;;;;;;;;;7.23;100.00;96397.63;10352613;28;1977;-74
2023/05/02 21:09:55;;;;;;;;;;;;;;;7.11;100.00;96394.97;10343298;28;1616;-73
2023/05/02 21:15:16;;;;;;;;;;;;;;;7.05;100.00;96395.91;10369591;28;1872;-73
2023/05/02 21:20:27;;;;;;;;;;;;;;;7.02;100.00;96391.88;10369158;28;2010;-75
2023/05/02 21:25:33;;;;;;;;;;;;;;;6.96;100.00;96392.81;10345518;28;1971;-73
2023/05/02 21:30:37;;;;;;;;;;;;;;;6.93;100.00;96392.47;10341456;28;1925;-75
2023/05/02 21:47:06;;;;;;;;;;;;;;;6.86;100.00;96389.91;10322255;28;1911;-72
2023/05/02 21:52:10;;;;;;;;;;;;;;;6.78;100.00;96383.06;10364889;28;5122;-73
2023/05/02 21:57:13;;;;;;;;;;;;;;;6.71;100.00;96379.72;10356805;28;1798;-74
2023/05/02 22:02:17;;;;;;;;;;;;;;;6.71;100.00;96376.22;10367782;28;2098;-74
2023/05/02 22:07:31;;;;;;;;;;;;;;;6.68;100.00;96384.69;10366606;28;1957;-75
2023/05/02 22:12:41;;;;;;;;;;;;;;;6.63;100.00;96384.63;10357399;28;1853;-75
2023/05/02 22:17:47;;;;;;;;;;;;;;;6.68;100.00;96384.69;10347171;28;1914;-75
2023/05/02 22:22:50;;;;;;;;;;;;;;;6.62;100.00;96381.13;10351871;28;1892;-74
2023/05/02 22:27:59;;;;;;;;;;;;;;;6.64;100.00;96387.03;10346082;28;1969;-75
2023/05/02 22:33:08;;;;;;;;;;;;;;;6.66;100.00;96382.28;10364896;28;1631;-76
2023/05/02 22:38:15;;;;;;;;;;;;;;;6.56;100.00;96391.94;10357542;28;1889;-74
2023/05/02 22:43:21;;;;;;;;;;;;;;;6.52;100.00;96396.09;10344297;28;1898;-74
2023/05/02 22:48:25;;;;;;;;;;;;;;;6.52;100.00;96396.09;10345609;28;5141;-73
2023/05/02 22:53:29;;;;;;;;;;;;;;;6.46;100.00;96392.50;10359720;28;1889;-73
2023/05/02 22:58:34;;;;;;;;;;;;;;;6.39;100.00;96397.16;10342170;28;2096;-74
2023/05/02 23:03:38;;;;;;;;;;;;;;;6.40;100.00;96393.44;10347729;28;2056;-72
2023/05/02 23:08:42;;;;;;;;;;;;;;;6.32;100.00;96391.94;10344856;28;1953;-74
2023/05/02 23:13:46;;;;;;;;;;;;;;;6.32;100.00;96386.59;10354158;28;2060;-77
2023/05/02 23:18:53;;;;;;;;;;;;;;;6.36;100.00;96387.75;10364833;28;1829;-76
2023/05/02 23:23:57;;;;;;;;;;;;;;;6.31;100.00;96382.28;10356980;28;1825;-73
2023/05/02 23:29:06;;;;;;;;;;;;;;;6.29;100.00;96386.22;10344254;28;1918;-75
2023/05/02 23:34:12;;;;;;;;;;;;;;;6.26;100.00;96384.84;10365191;28;1977;-74
2023/05/02 23:39:20;;;;;;;;;;;;;;;6.25;100.00;96385.88;10360033;28;1872;-74
2023/05/02 23:44:26;;;;;;;;;;;;;;;6.18;100.00;96379.84;10334572;28;1830;-73
2023/05/02 23:49:35;;;;;;;;;;;;;;;6.08;100.00;96382.25;10342989;28;5005;-77
2023/05/02 23:54:40;;;;;;;;;;;;;;;6.05;100.00;96378.22;10331265;28;2107;-74
2023/05/02 23:59:44;;;;;;;;;;;;;;;6.04;100.00;96378.41;10355801;28;1892;-75
